富士山静岡空港METAR/TAF(約33km東):

RJNS 291200Z 06005KT 010V100 9999 -RA FEW005 BKN009 BKN020 07/07 Q1018

TAF RJNS 291706Z 2918/3100 04005KT 9999 FEW010 BKN020 BECMG 3009/3012 36004KT BECMG 3021/3100 04008KT

ソアリング用気象予報:
BLIPMAP 中部地方
中部日本航空連盟および大野グライダークラブの支援により運営されているソアリング用気象予報BLIPMAPの中部地方版です。

風向風力(Windy.com):
スマホでの閲覧には、アプリ版Windy(Android/iOS)が適切です。

EGC Icon